Waldheim, Canada
Current Conditions -  °F | °C
As of 2:00 AM on Sunday 26 Oct 2014 (Local Time) from CYXE Reporting Station
Overcast Overcast  
Wind Chill: 34°   Ceiling: 15000
Heat Index: 43°   Visibility: 15mi
Dew Point: 30°   Wind: 20mph
Humidity: 61%   Direction: 120°ESE
Pressure: 29.59"   Gusts: 29mph
Location:  52.62°N, 106.65°W
Report Text: CYXE 260800Z 12017G25KT 15SM BKN150 OVC200 06/M01 A2959 RMK AC6CI2 SLP037
Loading
Personal Weather Stations






























Interactive Weather Map
Tropical Storm Tracking
New forecast layout! Learn more

10-Day Weather Forecast

Advertisements
Track Severe Weather on mobile